sensor_id;sensor_type;location;lat;lon;timestamp;pressure;altitude;pressure_sealevel;temperature;humidity
49943;BME280;36011;53.362;58.948;2023-04-25T00:02:24;97787.72;;;9.38;37.65
49943;BME280;36011;53.362;58.948;2023-04-25T00:05:28;97796.72;;;9.33;37.02
49943;BME280;36011;53.362;58.948;2023-04-25T00:08:35;97791.66;;;9.28;37.73
49943;BME280;36011;53.362;58.948;2023-04-25T00:11:42;97795.31;;;9.26;37.59
49943;BME280;36011;53.362;58.948;2023-04-25T00:14:47;97795.06;;;9.30;37.88
49943;BME280;36011;53.362;58.948;2023-04-25T00:17:53;97783.31;;;9.20;37.71
49943;BME280;36011;53.362;58.948;2023-04-25T00:21:00;97796.78;;;9.31;37.84
49943;BME280;36011;53.362;58.948;2023-04-25T00:24:07;97793.25;;;9.32;37.93
49943;BME280;36011;53.362;58.948;2023-04-25T00:27:13;97794.50;;;9.24;37.92
49943;BME280;36011;53.362;58.948;2023-04-25T00:30:15;97797.47;;;9.16;38.16
49943;BME280;36011;53.362;58.948;2023-04-25T00:33:16;97787.09;;;9.13;38.43
49943;BME280;36011;53.362;58.948;2023-04-25T00:36:18;97790.81;;;9.09;38.38
49943;BME280;36011;53.362;58.948;2023-04-25T00:39:26;97787.53;;;9.04;38.83
49943;BME280;36011;53.362;58.948;2023-04-25T00:42:30;97792.69;;;9.05;38.81
49943;BME280;36011;53.362;58.948;2023-04-25T00:45:40;97791.66;;;9.09;38.75
49943;BME280;36011;53.362;58.948;2023-04-25T00:48:46;97790.81;;;9.09;38.82
49943;BME280;36011;53.362;58.948;2023-04-25T00:51:50;97798.91;;;9.03;38.89
49943;BME280;36011;53.362;58.948;2023-04-25T00:54:54;97797.63;;;8.92;39.21
49943;BME280;36011;53.362;58.948;2023-04-25T00:57:58;97798.66;;;8.88;39.23
49943;BME280;36011;53.362;58.948;2023-04-25T01:01:00;97797.91;;;8.86;39.32
49943;BME280;36011;53.362;58.948;2023-04-25T01:04:04;97800.78;;;9.01;38.90
49943;BME280;36011;53.362;58.948;2023-04-25T01:07:06;97808.53;;;9.04;39.16
49943;BME280;36011;53.362;58.948;2023-04-25T01:10:09;97815.47;;;9.05;39.05
49943;BME280;36011;53.362;58.948;2023-04-25T01:13:13;97815.59;;;9.02;39.14
49943;BME280;36011;53.362;58.948;2023-04-25T01:16:17;97815.56;;;9.03;39.12
49943;BME280;36011;53.362;58.948;2023-04-25T01:19:20;97822.53;;;9.03;39.31
49943;BME280;36011;53.362;58.948;2023-04-25T01:22:25;97826.38;;;8.95;39.17
49943;BME280;36011;53.362;58.948;2023-04-25T01:25:30;97828.91;;;8.97;39.29
49943;BME280;36011;53.362;58.948;2023-04-25T01:28:38;97828.53;;;9.06;39.27
49943;BME280;36011;53.362;58.948;2023-04-25T01:31:42;97825.66;;;9.12;39.22
49943;BME280;36011;53.362;58.948;2023-04-25T01:34:46;97825.03;;;9.26;39.09
49943;BME280;36011;53.362;58.948;2023-04-25T01:37:51;97836.81;;;9.36;38.86
49943;BME280;36011;53.362;58.948;2023-04-25T01:40:53;97829.91;;;9.54;38.70
49943;BME280;36011;53.362;58.948;2023-04-25T01:43:56;97835.72;;;9.61;38.60
49943;BME280;36011;53.362;58.948;2023-04-25T01:47:01;97840.25;;;9.76;38.44
49943;BME280;36011;53.362;58.948;2023-04-25T01:50:07;97838.56;;;9.75;38.50
49943;BME280;36011;53.362;58.948;2023-04-25T01:53:13;97838.88;;;9.88;38.54
49943;BME280;36011;53.362;58.948;2023-04-25T01:56:21;97841.56;;;9.86;38.45
49943;BME280;36011;53.362;58.948;2023-04-25T01:59:24;97841.56;;;9.86;38.28
49943;BME280;36011;53.362;58.948;2023-04-25T02:02:30;97839.72;;;9.88;38.36
49943;BME280;36011;53.362;58.948;2023-04-25T02:05:40;97851.63;;;9.96;38.58
49943;BME280;36011;53.362;58.948;2023-04-25T02:08:44;97858.03;;;10.09;38.31
49943;BME280;36011;53.362;58.948;2023-04-25T02:11:48;97841.75;;;10.20;38.19
49943;BME280;36011;53.362;58.948;2023-04-25T02:14:52;97851.50;;;10.37;38.08
49943;BME280;36011;53.362;58.948;2023-04-25T02:17:54;97864.13;;;10.47;38.13
49943;BME280;36011;53.362;58.948;2023-04-25T02:20:55;97858.97;;;10.63;38.08
49943;BME280;36011;53.362;58.948;2023-04-25T02:23:59;97866.53;;;10.69;38.06
49943;BME280;36011;53.362;58.948;2023-04-25T02:27:08;97862.06;;;10.71;38.27
49943;BME280;36011;53.362;58.948;2023-04-25T02:30:12;97862.91;;;10.72;38.19
49943;BME280;36011;53.362;58.948;2023-04-25T02:33:19;97865.78;;;10.67;38.14
49943;BME280;36011;53.362;58.948;2023-04-25T02:36:25;97861.22;;;10.88;38.22
49943;BME280;36011;53.362;58.948;2023-04-25T02:39:29;97871.97;;;11.01;38.00
49943;BME280;36011;53.362;58.948;2023-04-25T02:42:36;97866.59;;;11.04;38.00
49943;BME280;36011;53.362;58.948;2023-04-25T02:45:43;97875.22;;;11.23;37.84
49943;BME280;36011;53.362;58.948;2023-04-25T02:48:48;97872.81;;;11.36;37.79
49943;BME280;36011;53.362;58.948;2023-04-25T02:52:00;97870.53;;;11.46;37.55
49943;BME280;36011;53.362;58.948;2023-04-25T02:55:04;97879.06;;;11.51;37.53
49943;BME280;36011;53.362;58.948;2023-04-25T02:58:09;97883.16;;;11.57;37.48
49943;BME280;36011;53.362;58.948;2023-04-25T03:01:11;97877.66;;;11.61;37.42
49943;BME280;36011;53.362;58.948;2023-04-25T03:04:16;97878.34;;;11.65;37.51
49943;BME280;36011;53.362;58.948;2023-04-25T03:07:25;97888.47;;;11.73;37.50
49943;BME280;36011;53.362;58.948;2023-04-25T03:10:29;97881.03;;;11.81;37.34
49943;BME280;36011;53.362;58.948;2023-04-25T03:13:37;97889.06;;;11.95;37.11
49943;BME280;36011;53.362;58.948;2023-04-25T03:16:47;97881.25;;;12.09;37.00
49943;BME280;36011;53.362;58.948;2023-04-25T03:19:50;97880.22;;;12.28;36.48
49943;BME280;36011;53.362;58.948;2023-04-25T03:22:55;97881.56;;;12.51;36.51
49943;BME280;36011;53.362;58.948;2023-04-25T03:26:01;97878.75;;;12.70;36.33
49943;BME280;36011;53.362;58.948;2023-04-25T03:29:10;97882.75;;;12.77;36.04
49943;BME280;36011;53.362;58.948;2023-04-25T03:32:15;97884.25;;;12.81;36.02
49943;BME280;36011;53.362;58.948;2023-04-25T03:35:18;97883.72;;;12.90;36.04
49943;BME280;36011;53.362;58.948;2023-04-25T03:38:22;97891.88;;;13.01;36.03
49943;BME280;36011;53.362;58.948;2023-04-25T03:41:29;97885.28;;;13.09;35.92
49943;BME280;36011;53.362;58.948;2023-04-25T03:44:35;97887.03;;;13.24;35.89
49943;BME280;36011;53.362;58.948;2023-04-25T03:47:39;97880.69;;;13.42;35.44
49943;BME280;36011;53.362;58.948;2023-04-25T03:50:46;97883.53;;;13.54;35.34
49943;BME280;36011;53.362;58.948;2023-04-25T03:53:51;97881.06;;;13.65;35.08
49943;BME280;36011;53.362;58.948;2023-04-25T03:57:01;97871.53;;;13.77;34.79
49943;BME280;36011;53.362;58.948;2023-04-25T04:00:06;97875.97;;;13.90;34.63
49943;BME280;36011;53.362;58.948;2023-04-25T04:03:16;97878.41;;;14.08;34.27
49943;BME280;36011;53.362;58.948;2023-04-25T04:06:20;97882.91;;;14.20;34.24
49943;BME280;36011;53.362;58.948;2023-04-25T04:09:25;97876.47;;;14.38;34.13
49943;BME280;36011;53.362;58.948;2023-04-25T04:12:32;97880.78;;;14.54;33.85
49943;BME280;36011;53.362;58.948;2023-04-25T04:15:33;97872.19;;;14.77;33.53
49943;BME280;36011;53.362;58.948;2023-04-25T04:18:53;97883.47;;;14.94;32.96
49943;BME280;36011;53.362;58.948;2023-04-25T04:21:57;97884.56;;;15.04;32.75
49943;BME280;36011;53.362;58.948;2023-04-25T04:25:02;97882.81;;;15.17;32.75
49943;BME280;36011;53.362;58.948;2023-04-25T04:28:09;97888.00;;;15.32;32.44
49943;BME280;36011;53.362;58.948;2023-04-25T04:31:14;97881.13;;;15.42;32.19
49943;BME280;36011;53.362;58.948;2023-04-25T04:34:22;97882.94;;;15.67;30.75
49943;BME280;36011;53.362;58.948;2023-04-25T04:37:25;97885.41;;;15.83;30.13
49943;BME280;36011;53.362;58.948;2023-04-25T04:40:30;97888.03;;;16.08;29.31
49943;BME280;36011;53.362;58.948;2023-04-25T04:43:32;97889.56;;;16.24;29.13
49943;BME280;36011;53.362;58.948;2023-04-25T04:46:43;97889.06;;;16.55;28.43
49943;BME280;36011;53.362;58.948;2023-04-25T04:49:49;97882.13;;;16.66;28.45
49943;BME280;36011;53.362;58.948;2023-04-25T04:52:53;97892.88;;;16.88;28.19
49943;BME280;36011;53.362;58.948;2023-04-25T04:55:59;97891.28;;;19.96;24.41
49943;BME280;36011;53.362;58.948;2023-04-25T04:59:03;97911.09;;;24.43;19.48
49943;BME280;36011;53.362;58.948;2023-04-25T05:02:07;97905.47;;;27.59;16.15
49943;BME280;36011;53.362;58.948;2023-04-25T05:05:13;97919.09;;;29.29;14.56
49943;BME280;36011;53.362;58.948;2023-04-25T05:08:20;97909.75;;;31.20;13.24
49943;BME280;36011;53.362;58.948;2023-04-25T05:11:24;97910.72;;;32.79;12.73
49943;BME280;36011;53.362;58.948;2023-04-25T05:14:32;97913.25;;;34.32;11.56
49943;BME280;36011;53.362;58.948;2023-04-25T05:17:35;97913.50;;;35.35;10.75
49943;BME280;36011;53.362;58.948;2023-04-25T05:20:39;97910.66;;;36.66;10.42
49943;BME280;36011;53.362;58.948;2023-04-25T05:23:48;97897.47;;;38.11;9.34
49943;BME280;36011;53.362;58.948;2023-04-25T05:26:52;97897.03;;;40.15;8.45
49943;BME280;36011;53.362;58.948;2023-04-25T05:29:56;97902.63;;;40.78;7.62
49943;BME280;36011;53.362;58.948;2023-04-25T05:33:04;97892.94;;;38.82;8.32
49943;BME280;36011;53.362;58.948;2023-04-25T05:36:08;97900.09;;;38.83;8.11
49943;BME280;36011;53.362;58.948;2023-04-25T05:39:12;97892.44;;;39.07;8.02
49943;BME280;36011;53.362;58.948;2023-04-25T05:42:20;97891.53;;;39.51;7.61
49943;BME280;36011;53.362;58.948;2023-04-25T05:45:22;97890.97;;;40.18;7.69
49943;BME280;36011;53.362;58.948;2023-04-25T05:48:33;97888.06;;;40.88;7.46
49943;BME280;36011;53.362;58.948;2023-04-25T05:51:40;97888.63;;;42.79;6.68
49943;BME280;36011;53.362;58.948;2023-04-25T05:54:43;97891.06;;;43.80;6.30
49943;BME280;36011;53.362;58.948;2023-04-25T05:57:48;97882.19;;;44.12;5.84
49943;BME280;36011;53.362;58.948;2023-04-25T06:00:52;97886.34;;;44.87;5.77
49943;BME280;36011;53.362;58.948;2023-04-25T06:03:56;97888.78;;;45.13;5.18
49943;BME280;36011;53.362;58.948;2023-04-25T06:07:03;97895.75;;;44.91;5.21
49943;BME280;36011;53.362;58.948;2023-04-25T06:10:05;97872.88;;;44.03;5.55
49943;BME280;36011;53.362;58.948;2023-04-25T06:13:11;97880.00;;;42.91;5.76
49943;BME280;36011;53.362;58.948;2023-04-25T06:16:16;97871.41;;;42.93;5.79
49943;BME280;36011;53.362;58.948;2023-04-25T06:19:22;97847.91;;;41.59;6.62
49943;BME280;36011;53.362;58.948;2023-04-25T06:22:28;97866.53;;;42.64;6.27
49943;BME280;36011;53.362;58.948;2023-04-25T06:25:32;97855.53;;;42.49;6.01
49943;BME280;36011;53.362;58.948;2023-04-25T06:28:39;97869.81;;;42.66;6.01
49943;BME280;36011;53.362;58.948;2023-04-25T06:31:48;97852.25;;;42.26;6.21
49943;BME280;36011;53.362;58.948;2023-04-25T06:34:56;97860.34;;;41.51;6.51
49943;BME280;36011;53.362;58.948;2023-04-25T06:38:00;97854.53;;;41.68;6.52
49943;BME280;36011;53.362;58.948;2023-04-25T06:41:07;97853.44;;;41.48;6.29
49943;BME280;36011;53.362;58.948;2023-04-25T06:44:09;97858.66;;;40.51;6.98
49943;BME280;36011;53.362;58.948;2023-04-25T06:47:17;97843.63;;;40.27;7.20
49943;BME280;36011;53.362;58.948;2023-04-25T06:50:23;97850.53;;;40.92;6.89
49943;BME280;36011;53.362;58.948;2023-04-25T06:53:27;97856.13;;;42.35;6.47
49943;BME280;36011;53.362;58.948;2023-04-25T06:56:36;97841.81;;;42.08;6.20
49943;BME280;36011;53.362;58.948;2023-04-25T06:59:41;97836.78;;;41.08;6.74
49943;BME280;36011;53.362;58.948;2023-04-25T07:02:49;97821.72;;;42.57;6.33
49943;BME280;36011;53.362;58.948;2023-04-25T07:05:53;97845.63;;;43.76;5.58
49943;BME280;36011;53.362;58.948;2023-04-25T07:09:00;97825.53;;;42.71;6.11
49943;BME280;36011;53.362;58.948;2023-04-25T07:12:17;97823.97;;;43.49;5.69
49943;BME280;36011;53.362;58.948;2023-04-25T07:15:19;97825.84;;;43.19;5.70
49943;BME280;36011;53.362;58.948;2023-04-25T07:18:22;97829.59;;;43.73;5.56
49943;BME280;36011;53.362;58.948;2023-04-25T07:21:32;97805.28;;;42.21;5.83
49943;BME280;36011;53.362;58.948;2023-04-25T07:24:39;97793.44;;;42.70;5.83
49943;BME280;36011;53.362;58.948;2023-04-25T07:27:44;97800.50;;;42.42;6.08
49943;BME280;36011;53.362;58.948;2023-04-25T07:30:52;97810.31;;;41.93;5.95
49943;BME280;36011;53.362;58.948;2023-04-25T07:33:56;97790.69;;;41.64;6.23
49943;BME280;36011;53.362;58.948;2023-04-25T07:37:03;97787.34;;;42.68;6.01
49943;BME280;36011;53.362;58.948;2023-04-25T07:40:05;97789.25;;;43.22;5.35
49943;BME280;36011;53.362;58.948;2023-04-25T07:43:07;97795.28;;;43.35;5.47
49943;BME280;36011;53.362;58.948;2023-04-25T07:46:14;97794.00;;;43.51;5.71
49943;BME280;36011;53.362;58.948;2023-04-25T07:49:21;97773.16;;;42.30;6.22
49943;BME280;36011;53.362;58.948;2023-04-25T07:52:27;97776.53;;;42.82;5.92
49943;BME280;36011;53.362;58.948;2023-04-25T07:55:29;97776.84;;;42.75;6.02
49943;BME280;36011;53.362;58.948;2023-04-25T07:58:35;97769.72;;;42.59;5.80
49943;BME280;36011;53.362;58.948;2023-04-25T08:01:40;97753.88;;;41.89;6.30
49943;BME280;36011;53.362;58.948;2023-04-25T08:04:47;97761.09;;;43.10;6.14
49943;BME280;36011;53.362;58.948;2023-04-25T08:07:56;97751.03;;;43.24;5.84
49943;BME280;36011;53.362;58.948;2023-04-25T08:11:01;97754.94;;;43.23;5.25
49943;BME280;36011;53.362;58.948;2023-04-25T08:14:07;97742.56;;;41.86;5.89
49943;BME280;36011;53.362;58.948;2023-04-25T08:17:12;97737.94;;;41.45;6.26
49943;BME280;36011;53.362;58.948;2023-04-25T08:20:16;97734.66;;;41.23;5.95
49943;BME280;36011;53.362;58.948;2023-04-25T08:23:20;97745.13;;;41.26;6.18
49943;BME280;36011;53.362;58.948;2023-04-25T08:26:28;97726.25;;;41.89;6.46
49943;BME280;36011;53.362;58.948;2023-04-25T08:29:37;97730.22;;;42.93;5.62
49943;BME280;36011;53.362;58.948;2023-04-25T08:32:41;97722.78;;;43.22;5.75
49943;BME280;36011;53.362;58.948;2023-04-25T08:35:50;97718.38;;;42.32;5.67
49943;BME280;36011;53.362;58.948;2023-04-25T08:38:51;97707.59;;;41.25;5.72
49943;BME280;36011;53.362;58.948;2023-04-25T08:41:59;97705.97;;;40.10;6.44
49943;BME280;36011;53.362;58.948;2023-04-25T08:45:09;97705.03;;;39.89;6.37
49943;BME280;36011;53.362;58.948;2023-04-25T08:48:19;97696.22;;;38.53;7.01
49943;BME280;36011;53.362;58.948;2023-04-25T08:51:30;97699.22;;;38.02;7.18
49943;BME280;36011;53.362;58.948;2023-04-25T08:54:45;97695.22;;;37.71;7.43
49943;BME280;36011;53.362;58.948;2023-04-25T08:57:54;97703.44;;;39.50;6.73
49943;BME280;36011;53.362;58.948;2023-04-25T09:00:59;97700.13;;;41.15;5.99
49943;BME280;36011;53.362;58.948;2023-04-25T09:04:04;97699.28;;;40.94;5.90
49943;BME280;36011;53.362;58.948;2023-04-25T09:07:10;97731.19;;;40.49;5.71
49943;BME280;36011;53.362;58.948;2023-04-25T09:10:14;97692.47;;;39.23;6.13
49943;BME280;36011;53.362;58.948;2023-04-25T09:13:24;97688.16;;;38.19;6.93
49943;BME280;36011;53.362;58.948;2023-04-25T09:16:31;97685.66;;;37.95;6.78
49943;BME280;36011;53.362;58.948;2023-04-25T09:19:39;97673.41;;;38.30;6.88
49943;BME280;36011;53.362;58.948;2023-04-25T09:22:45;97702.09;;;38.89;6.33
49943;BME280;36011;53.362;58.948;2023-04-25T09:25:48;97672.53;;;38.47;6.07
49943;BME280;36011;53.362;58.948;2023-04-25T09:29:06;97684.78;;;38.12;6.65
49943;BME280;36011;53.362;58.948;2023-04-25T09:32:20;97664.41;;;36.62;7.28
49943;BME280;36011;53.362;58.948;2023-04-25T09:35:27;97666.13;;;35.83;7.40
49943;BME280;36011;53.362;58.948;2023-04-25T09:38:32;97650.66;;;35.77;7.40
49943;BME280;36011;53.362;58.948;2023-04-25T09:41:41;97660.66;;;36.40;7.54
49943;BME280;36011;53.362;58.948;2023-04-25T09:44:46;97650.59;;;36.57;6.86
49943;BME280;36011;53.362;58.948;2023-04-25T09:47:48;97651.75;;;35.75;7.58
49943;BME280;36011;53.362;58.948;2023-04-25T09:51:15;97640.44;;;34.78;7.74
49943;BME280;36011;53.362;58.948;2023-04-25T09:54:16;97651.75;;;35.52;7.67
49943;BME280;36011;53.362;58.948;2023-04-25T09:57:20;97651.66;;;35.23;7.85
49943;BME280;36011;53.362;58.948;2023-04-25T10:00:26;97647.84;;;35.36;8.20
49943;BME280;36011;53.362;58.948;2023-04-25T10:03:34;97643.94;;;35.08;8.35
49943;BME280;36011;53.362;58.948;2023-04-25T10:06:37;97627.22;;;34.33;8.79
49943;BME280;36011;53.362;58.948;2023-04-25T10:09:39;97645.34;;;35.35;8.00
49943;BME280;36011;53.362;58.948;2023-04-25T10:12:47;97631.00;;;34.20;8.91
49943;BME280;36011;53.362;58.948;2023-04-25T10:15:52;97653.72;;;33.03;8.95
49943;BME280;36011;53.362;58.948;2023-04-25T10:19:00;97618.56;;;31.55;10.40
49943;BME280;36011;53.362;58.948;2023-04-25T10:22:08;97632.47;;;32.24;9.53
49943;BME280;36011;53.362;58.948;2023-04-25T10:25:22;97623.78;;;32.08;10.13
49943;BME280;36011;53.362;58.948;2023-04-25T10:28:29;97620.25;;;32.33;10.10
49943;BME280;36011;53.362;58.948;2023-04-25T10:31:53;97606.63;;;32.01;10.12
49943;BME280;36011;53.362;58.948;2023-04-25T10:34:56;97621.00;;;31.76;10.70
49943;BME280;36011;53.362;58.948;2023-04-25T10:38:08;97601.13;;;32.14;10.45
49943;BME280;36011;53.362;58.948;2023-04-25T10:41:18;97599.22;;;31.70;10.46
49943;BME280;36011;53.362;58.948;2023-04-25T10:44:22;97605.94;;;31.67;10.87
49943;BME280;36011;53.362;58.948;2023-04-25T10:47:36;97613.59;;;31.39;10.88
49943;BME280;36011;53.362;58.948;2023-04-25T10:50:50;97594.44;;;31.00;10.95
49943;BME280;36011;53.362;58.948;2023-04-25T10:54:14;97591.88;;;31.12;10.64
49943;BME280;36011;53.362;58.948;2023-04-25T10:57:44;97590.38;;;31.81;10.51
49943;BME280;36011;53.362;58.948;2023-04-25T11:00:49;97607.53;;;31.23;10.52
49943;BME280;36011;53.362;58.948;2023-04-25T11:03:57;97591.47;;;30.22;11.54
49943;BME280;36011;53.362;58.948;2023-04-25T11:07:13;97608.69;;;29.81;11.76
49943;BME280;36011;53.362;58.948;2023-04-25T11:10:25;97572.88;;;29.51;11.61
49943;BME280;36011;53.362;58.948;2023-04-25T11:13:34;97582.47;;;29.53;11.40
49943;BME280;36011;53.362;58.948;2023-04-25T11:16:39;97573.28;;;28.78;11.83
49943;BME280;36011;53.362;58.948;2023-04-25T11:19:43;97588.28;;;28.53;12.19
49943;BME280;36011;53.362;58.948;2023-04-25T11:22:49;97557.50;;;28.11;12.72
49943;BME280;36011;53.362;58.948;2023-04-25T11:25:56;97567.50;;;28.10;12.99
49943;BME280;36011;53.362;58.948;2023-04-25T11:29:00;97562.72;;;28.34;12.57
49943;BME280;36011;53.362;58.948;2023-04-25T11:32:04;97567.00;;;28.71;12.12
49943;BME280;36011;53.362;58.948;2023-04-25T11:35:22;97575.31;;;28.20;12.42
49943;BME280;36011;53.362;58.948;2023-04-25T11:39:09;97560.66;;;27.93;12.78
49943;BME280;36011;53.362;58.948;2023-04-25T11:42:19;97556.88;;;27.72;13.13
49943;BME280;36011;53.362;58.948;2023-04-25T11:45:40;97556.06;;;27.72;12.97
49943;BME280;36011;53.362;58.948;2023-04-25T11:48:49;97557.34;;;27.40;13.06
49943;BME280;36011;53.362;58.948;2023-04-25T11:51:57;97549.81;;;27.05;13.44
49943;BME280;36011;53.362;58.948;2023-04-25T11:55:01;97543.22;;;26.78;13.69
49943;BME280;36011;53.362;58.948;2023-04-25T11:58:13;97542.91;;;26.58;14.17
49943;BME280;36011;53.362;58.948;2023-04-25T12:01:38;97561.59;;;26.60;14.46
49943;BME280;36011;53.362;58.948;2023-04-25T12:04:45;97544.91;;;26.41;14.56
49943;BME280;36011;53.362;58.948;2023-04-25T12:07:52;97551.81;;;26.21;14.57
49943;BME280;36011;53.362;58.948;2023-04-25T12:10:58;97545.69;;;25.81;14.40
49943;BME280;36011;53.362;58.948;2023-04-25T12:14:05;97545.47;;;25.68;14.07
49943;BME280;36011;53.362;58.948;2023-04-25T12:17:09;97536.09;;;25.56;14.17
49943;BME280;36011;53.362;58.948;2023-04-25T12:20:15;97537.56;;;25.35;14.01
49943;BME280;36011;53.362;58.948;2023-04-25T12:23:20;97553.25;;;25.63;14.37
49943;BME280;36011;53.362;58.948;2023-04-25T12:29:54;97536.97;;;25.79;14.11
49943;BME280;36011;53.362;58.948;2023-04-25T12:33:00;97536.16;;;26.02;14.21
49943;BME280;36011;53.362;58.948;2023-04-25T12:36:05;97533.72;;;26.07;13.29
49943;BME280;36011;53.362;58.948;2023-04-25T12:39:21;97530.88;;;25.85;13.07
49943;BME280;36011;53.362;58.948;2023-04-25T12:42:31;97526.97;;;25.65;13.58
49943;BME280;36011;53.362;58.948;2023-04-25T12:45:38;97529.75;;;25.48;14.23
49943;BME280;36011;53.362;58.948;2023-04-25T12:48:45;97521.81;;;25.07;14.47
49943;BME280;36011;53.362;58.948;2023-04-25T12:51:48;97525.03;;;24.63;14.90
49943;BME280;36011;53.362;58.948;2023-04-25T12:54:52;97530.94;;;24.51;15.23
49943;BME280;36011;53.362;58.948;2023-04-25T12:57:58;97525.72;;;24.25;15.43
49943;BME280;36011;53.362;58.948;2023-04-25T13:01:02;97520.34;;;24.16;15.71
49943;BME280;36011;53.362;58.948;2023-04-25T13:04:06;97513.31;;;24.07;16.03
49943;BME280;36011;53.362;58.948;2023-04-25T13:07:10;97524.06;;;23.91;16.39
49943;BME280;36011;53.362;58.948;2023-04-25T13:10:16;97518.34;;;23.94;16.22
49943;BME280;36011;53.362;58.948;2023-04-25T13:13:21;97516.00;;;23.83;16.13
49943;BME280;36011;53.362;58.948;2023-04-25T13:16:23;97523.69;;;23.69;16.45
49943;BME280;36011;53.362;58.948;2023-04-25T13:19:29;97531.81;;;23.35;16.88
49943;BME280;36011;53.362;58.948;2023-04-25T13:22:34;97502.28;;;22.93;17.01
49943;BME280;36011;53.362;58.948;2023-04-25T13:25:40;97496.28;;;22.56;16.90
49943;BME280;36011;53.362;58.948;2023-04-25T13:28:43;97532.69;;;22.67;16.66
49943;BME280;36011;53.362;58.948;2023-04-25T13:31:50;97519.72;;;22.54;16.98
49943;BME280;36011;53.362;58.948;2023-04-25T13:34:57;97525.50;;;22.41;17.04
49943;BME280;36011;53.362;58.948;2023-04-25T13:38:02;97513.06;;;22.32;16.90
49943;BME280;36011;53.362;58.948;2023-04-25T13:41:08;97507.53;;;22.34;16.88
49943;BME280;36011;53.362;58.948;2023-04-25T13:44:18;97501.94;;;22.27;17.21
49943;BME280;36011;53.362;58.948;2023-04-25T13:47:22;97496.97;;;22.32;17.25
49943;BME280;36011;53.362;58.948;2023-04-25T13:50:29;97488.47;;;22.37;17.67
49943;BME280;36011;53.362;58.948;2023-04-25T13:53:38;97495.94;;;22.25;17.77
49943;BME280;36011;53.362;58.948;2023-04-25T13:56:42;97487.50;;;22.20;17.48
49943;BME280;36011;53.362;58.948;2023-04-25T13:59:46;97480.59;;;21.91;17.88
49943;BME280;36011;53.362;58.948;2023-04-25T14:02:49;97486.75;;;21.66;17.97
49943;BME280;36011;53.362;58.948;2023-04-25T14:05:53;97480.13;;;21.42;18.30
49943;BME280;36011;53.362;58.948;2023-04-25T14:08:59;97476.72;;;21.22;18.36
49943;BME280;36011;53.362;58.948;2023-04-25T14:12:04;97480.63;;;21.10;18.21
49943;BME280;36011;53.362;58.948;2023-04-25T14:15:09;97481.38;;;21.02;18.29
49943;BME280;36011;53.362;58.948;2023-04-25T14:18:16;97485.19;;;21.00;18.23
49943;BME280;36011;53.362;58.948;2023-04-25T14:21:20;97477.63;;;20.95;17.96
49943;BME280;36011;53.362;58.948;2023-04-25T14:24:28;97486.63;;;20.94;17.78
49943;BME280;36011;53.362;58.948;2023-04-25T14:27:34;97486.31;;;20.97;17.76
49943;BME280;36011;53.362;58.948;2023-04-25T14:30:38;97493.47;;;20.79;17.78
49943;BME280;36011;53.362;58.948;2023-04-25T14:33:39;97490.69;;;20.71;18.08
49943;BME280;36011;53.362;58.948;2023-04-25T14:36:49;97493.00;;;20.56;18.42
49943;BME280;36011;53.362;58.948;2023-04-25T14:39:53;97489.72;;;20.25;18.63
49943;BME280;36011;53.362;58.948;2023-04-25T14:42:57;97502.53;;;20.11;18.59
49943;BME280;36011;53.362;58.948;2023-04-25T14:46:04;97502.81;;;20.08;19.24
49943;BME280;36011;53.362;58.948;2023-04-25T14:49:10;97492.00;;;20.00;19.33
49943;BME280;36011;53.362;58.948;2023-04-25T14:52:11;97496.41;;;19.82;19.78
49943;BME280;36011;53.362;58.948;2023-04-25T14:55:15;97494.56;;;19.72;20.00
49943;BME280;36011;53.362;58.948;2023-04-25T14:58:20;97496.25;;;19.54;20.54
49943;BME280;36011;53.362;58.948;2023-04-25T15:01:25;97508.53;;;19.16;20.73
49943;BME280;36011;53.362;58.948;2023-04-25T15:04:29;97481.84;;;18.97;20.98
49943;BME280;36011;53.362;58.948;2023-04-25T15:07:35;97503.31;;;18.95;21.46
49943;BME280;36011;53.362;58.948;2023-04-25T15:10:43;97497.25;;;18.93;21.61
49943;BME280;36011;53.362;58.948;2023-04-25T15:13:49;97505.06;;;18.75;21.98
49943;BME280;36011;53.362;58.948;2023-04-25T15:16:50;97502.47;;;18.64;22.56
49943;BME280;36011;53.362;58.948;2023-04-25T15:19:58;97506.88;;;18.44;22.38
49943;BME280;36011;53.362;58.948;2023-04-25T15:23:06;97510.63;;;18.32;22.61
49943;BME280;36011;53.362;58.948;2023-04-25T15:26:10;97509.41;;;18.15;23.09
49943;BME280;36011;53.362;58.948;2023-04-25T15:29:14;97511.66;;;17.99;23.43
49943;BME280;36011;53.362;58.948;2023-04-25T15:32:19;97516.91;;;17.89;23.57
49943;BME280;36011;53.362;58.948;2023-04-25T15:35:24;97509.59;;;17.81;24.06
49943;BME280;36011;53.362;58.948;2023-04-25T15:38:26;97516.84;;;17.79;23.86
49943;BME280;36011;53.362;58.948;2023-04-25T15:41:28;97523.69;;;17.61;24.16
49943;BME280;36011;53.362;58.948;2023-04-25T15:44:33;97521.91;;;17.50;24.43
49943;BME280;36011;53.362;58.948;2023-04-25T15:47:37;97520.47;;;17.46;24.47
49943;BME280;36011;53.362;58.948;2023-04-25T15:50:44;97520.91;;;17.30;24.85
49943;BME280;36011;53.362;58.948;2023-04-25T15:53:53;97514.59;;;17.31;24.82
49943;BME280;36011;53.362;58.948;2023-04-25T15:57:00;97518.66;;;17.03;25.29
49943;BME280;36011;53.362;58.948;2023-04-25T16:00:05;97517.09;;;16.89;25.71
49943;BME280;36011;53.362;58.948;2023-04-25T16:03:19;97514.84;;;16.85;25.68
49943;BME280;36011;53.362;58.948;2023-04-25T16:06:20;97513.38;;;16.92;25.85
49943;BME280;36011;53.362;58.948;2023-04-25T16:09:33;97518.91;;;16.66;26.35
49943;BME280;36011;53.362;58.948;2023-04-25T16:12:41;97522.56;;;16.54;26.26
49943;BME280;36011;53.362;58.948;2023-04-25T16:15:43;97526.38;;;16.38;26.63
49943;BME280;36011;53.362;58.948;2023-04-25T16:18:46;97536.16;;;16.27;26.97
49943;BME280;36011;53.362;58.948;2023-04-25T16:21:53;97529.91;;;16.28;27.21
49943;BME280;36011;53.362;58.948;2023-04-25T16:25:01;97527.47;;;16.25;26.89